Time;durP1;ratioP1;P1;durP2;ratioP2;P2;SDS_P1;SDS_P2;PMS_P1;PMS_P2;Temp;Humidity;BMP_temperature;BMP_pressure;BME280_temperature;BME280_humidity;BME280_pressure;Samples;Min_cycle;Max_cycle;Signal;HPM_P1;HPM_P2
2023/05/14 00:00:17;;;;;;;3.10;2.90;;;;;;;;;;5023201;28;20715;-80
2023/05/14 00:02:43;;;;;;;3.50;3.20;;;;;;;;;;5018179;23;20320;-77
2023/05/14 00:05:09;;;;;;;3.13;2.77;;;;;;;;;;5004988;28;20239;-74
2023/05/14 00:07:37;;;;;;;3.10;2.90;;;;;;;;;;5009410;28;20521;-75
2023/05/14 00:10:02;;;;;;;3.00;2.80;;;;;;;;;;5009625;28;20669;-75
2023/05/14 00:12:28;;;;;;;3.30;2.80;;;;;;;;;;5023944;28;20765;-75
2023/05/14 00:14:56;;;;;;;3.40;3.20;;;;;;;;;;5014541;28;20492;-74
2023/05/14 00:17:22;;;;;;;3.50;3.20;;;;;;;;;;5008819;28;20258;-75
2023/05/14 00:19:50;;;;;;;3.00;2.80;;;;;;;;;;5032562;28;20685;-76
2023/05/14 00:22:17;;;;;;;3.60;2.90;;;;;;;;;;4990956;28;20238;-75
2023/05/14 00:24:45;;;;;;;3.20;3.00;;;;;;;;;;5007457;28;20216;-73
2023/05/14 00:27:11;;;;;;;3.73;2.93;;;;;;;;;;4985373;28;20228;-75
2023/05/14 00:29:36;;;;;;;3.37;3.07;;;;;;;;;;4994376;28;20216;-74
2023/05/14 00:32:02;;;;;;;5.30;3.20;;;;;;;;;;4996793;28;20227;-75
2023/05/14 00:34:30;;;;;;;3.20;3.00;;;;;;;;;;4989097;28;20298;-74
2023/05/14 00:36:56;;;;;;;3.53;3.23;;;;;;;;;;4987401;28;20774;-74
2023/05/14 00:39:25;;;;;;;3.27;3.07;;;;;;;;;;5025067;28;20239;-75
2023/05/14 00:41:53;;;;;;;3.47;3.17;;;;;;;;;;5036728;28;20282;-75
2023/05/14 00:44:29;;;;;;;3.50;3.20;;;;;;;;;;4996238;28;20266;-75
2023/05/14 00:47:00;;;;;;;3.83;3.50;;;;;;;;;;4998139;28;20316;-75
2023/05/14 00:49:30;;;;;;;3.67;3.20;;;;;;;;;;4991424;28;20323;-75
2023/05/14 00:51:59;;;;;;;3.77;3.53;;;;;;;;;;5001784;28;20242;-75
2023/05/14 00:54:30;;;;;;;4.20;3.83;;;;;;;;;;5010708;28;20224;-75
2023/05/14 00:56:58;;;;;;;4.10;3.70;;;;;;;;;;4997737;28;20235;-75
2023/05/14 00:59:26;;;;;;;5.93;4.00;;;;;;;;;;4998179;28;20216;-74
2023/05/14 01:01:51;;;;;;;4.20;3.90;;;;;;;;;;4991672;28;20243;-75
2023/05/14 01:04:17;;;;;;;4.60;4.20;;;;;;;;;;5003757;28;20238;-74
2023/05/14 01:07:13;;;;;;;4.10;3.80;;;;;;;;;;5013212;28;20216;-74
2023/05/14 01:09:45;;;;;;;4.00;3.70;;;;;;;;;;5014558;28;20755;-76
2023/05/14 01:12:24;;;;;;;4.23;3.93;;;;;;;;;;5030743;28;20216;-76
2023/05/14 01:14:53;;;;;;;4.47;4.07;;;;;;;;;;5019456;28;20230;-76
2023/05/14 01:17:20;;;;;;;5.37;4.00;;;;;;;;;;5016136;28;20702;-75
2023/05/14 01:19:48;;;;;;;4.17;3.77;;;;;;;;;;4999160;28;20222;-76
2023/05/14 01:22:18;;;;;;;4.40;4.00;;;;;;;;;;5011686;28;20228;-76
2023/05/14 01:24:49;;;;;;;4.10;3.80;;;;;;;;;;5012228;28;20363;-75
2023/05/14 01:27:23;;;;;;;4.33;4.03;;;;;;;;;;4997384;28;20246;-75
2023/05/14 01:29:59;;;;;;;4.40;3.67;;;;;;;;;;5027886;28;20772;-76
2023/05/14 01:32:27;;;;;;;4.27;3.97;;;;;;;;;;5012672;28;20362;-76
2023/05/14 01:34:53;;;;;;;4.33;3.93;;;;;;;;;;4997054;28;20659;-75
2023/05/14 01:37:22;;;;;;;4.40;4.07;;;;;;;;;;4996015;28;20254;-75
2023/05/14 01:39:51;;;;;;;4.20;3.90;;;;;;;;;;4998625;28;20274;-75
2023/05/14 01:42:16;;;;;;;4.60;4.20;;;;;;;;;;4996907;28;20651;-76
2023/05/14 01:44:44;;;;;;;3.93;3.63;;;;;;;;;;5028459;28;20223;-76
2023/05/14 01:47:13;;;;;;;4.13;3.77;;;;;;;;;;5010538;28;20310;-76
2023/05/14 01:49:41;;;;;;;3.97;3.60;;;;;;;;;;4978807;28;20244;-76
2023/05/14 01:52:07;;;;;;;4.30;3.90;;;;;;;;;;5025166;28;20216;-75
2023/05/14 01:54:33;;;;;;;4.27;3.97;;;;;;;;;;5016778;28;20245;-75
2023/05/14 01:56:58;;;;;;;4.47;3.77;;;;;;;;;;5004408;28;20725;-76
2023/05/14 01:59:29;;;;;;;4.40;4.00;;;;;;;;;;4991422;28;20255;-76
2023/05/14 02:01:55;;;;;;;4.47;4.07;;;;;;;;;;4997699;28;20236;-76
2023/05/14 02:04:23;;;;;;;4.30;3.90;;;;;;;;;;4999407;28;20217;-76
2023/05/14 02:06:51;;;;;;;4.20;3.90;;;;;;;;;;4998392;28;20211;-76
2023/05/14 02:09:19;;;;;;;3.97;3.67;;;;;;;;;;5011659;28;20223;-75
2023/05/14 02:11:50;;;;;;;4.83;4.40;;;;;;;;;;5006012;28;20204;-75
2023/05/14 02:14:15;;;;;;;4.70;4.30;;;;;;;;;;5033376;28;20227;-75
2023/05/14 02:16:43;;;;;;;4.77;4.37;;;;;;;;;;5015806;28;20224;-75
2023/05/14 02:19:12;;;;;;;4.90;4.50;;;;;;;;;;5018439;28;20208;-75
2023/05/14 02:21:37;;;;;;;4.93;4.53;;;;;;;;;;5009478;28;20227;-75
2023/05/14 02:24:05;;;;;;;4.60;4.30;;;;;;;;;;5004512;28;20704;-75
2023/05/14 02:26:31;;;;;;;4.63;4.33;;;;;;;;;;4999328;28;20220;-73
2023/05/14 02:28:58;;;;;;;5.10;4.60;;;;;;;;;;5001725;28;20215;-74
2023/05/14 02:31:26;;;;;;;5.23;4.83;;;;;;;;;;5020363;28;20231;-76
2023/05/14 02:33:52;;;;;;;5.00;4.60;;;;;;;;;;5043324;28;20220;-75
2023/05/14 02:36:17;;;;;;;4.67;4.27;;;;;;;;;;5018002;28;20231;-74
2023/05/14 02:38:43;;;;;;;4.60;4.20;;;;;;;;;;5037261;28;20219;-74
2023/05/14 02:41:08;;;;;;;5.37;4.77;;;;;;;;;;5000525;28;20315;-74
2023/05/14 02:43:34;;;;;;;4.90;4.50;;;;;;;;;;5034660;28;20281;-74
2023/05/14 02:45:59;;;;;;;5.23;4.83;;;;;;;;;;4999605;28;20601;-75
2023/05/14 02:48:29;;;;;;;5.00;4.60;;;;;;;;;;5011526;28;20223;-75
2023/05/14 02:51:00;;;;;;;5.03;4.63;;;;;;;;;;4997025;28;20224;-75
2023/05/14 02:53:25;;;;;;;4.30;4.00;;;;;;;;;;5024610;28;20616;-75
2023/05/14 02:55:51;;;;;;;4.60;4.20;;;;;;;;;;5030381;28;20220;-74
2023/05/14 02:58:16;;;;;;;4.70;4.30;;;;;;;;;;5011543;28;20228;-75
2023/05/14 03:00:44;;;;;;;4.67;4.37;;;;;;;;;;4988452;28;20232;-75
2023/05/14 03:03:10;;;;;;;4.40;4.00;;;;;;;;;;5010828;28;20741;-75
2023/05/14 03:05:35;;;;;;;4.73;4.37;;;;;;;;;;5007927;28;20220;-76
2023/05/14 03:08:06;;;;;;;4.90;4.20;;;;;;;;;;5009361;28;20231;-75
2023/05/14 03:10:32;;;;;;;4.80;4.40;;;;;;;;;;5015185;28;20693;-75
2023/05/14 03:13:00;;;;;;;4.77;4.37;;;;;;;;;;5001590;28;20275;-75
2023/05/14 03:15:28;;;;;;;4.70;4.30;;;;;;;;;;4999792;28;20228;-75
2023/05/14 03:17:54;;;;;;;4.47;4.07;;;;;;;;;;5049337;28;20246;-75
2023/05/14 03:20:20;;;;;;;4.30;4.00;;;;;;;;;;5005234;28;20227;-75
2023/05/14 03:22:53;;;;;;;4.60;4.17;;;;;;;;;;4999740;28;20235;-75
2023/05/14 03:25:24;;;;;;;4.60;4.30;;;;;;;;;;5032668;28;20219;-75
2023/05/14 03:27:52;;;;;;;4.40;4.00;;;;;;;;;;5022533;28;20222;-75
2023/05/14 03:30:20;;;;;;;4.53;4.13;;;;;;;;;;5012450;28;20215;-75
2023/05/14 03:32:47;;;;;;;4.60;4.20;;;;;;;;;;5003357;28;20219;-76
2023/05/14 03:35:12;;;;;;;4.40;4.00;;;;;;;;;;5013557;28;20231;-75
2023/05/14 03:37:40;;;;;;;4.50;4.10;;;;;;;;;;5044826;28;20212;-75
2023/05/14 03:40:06;;;;;;;4.33;3.93;;;;;;;;;;5032700;28;20212;-76
2023/05/14 03:42:37;;;;;;;4.57;4.27;;;;;;;;;;4986669;28;20255;-75
2023/05/14 03:45:03;;;;;;;4.40;4.00;;;;;;;;;;4995985;28;20227;-75
2023/05/14 03:47:31;;;;;;;4.73;4.33;;;;;;;;;;5014264;28;20600;-75
2023/05/14 03:49:59;;;;;;;4.87;4.47;;;;;;;;;;5015803;28;20273;-75
2023/05/14 03:52:29;;;;;;;4.30;4.00;;;;;;;;;;5017935;28;20227;-75
2023/05/14 03:54:55;;;;;;;4.70;4.30;;;;;;;;;;5014359;28;20224;-75
2023/05/14 03:57:27;;;;;;;4.83;4.30;;;;;;;;;;5014663;28;20597;-75
2023/05/14 03:59:57;;;;;;;4.70;4.30;;;;;;;;;;5002848;28;20224;-76
2023/05/14 04:02:23;;;;;;;4.40;3.83;;;;;;;;;;5028922;28;20236;-75
2023/05/14 04:04:51;;;;;;;4.73;4.33;;;;;;;;;;5010035;28;20286;-75
2023/05/14 04:07:21;;;;;;;4.40;4.00;;;;;;;;;;5012089;28;20216;-75
2023/05/14 04:09:49;;;;;;;4.83;4.43;;;;;;;;;;4994678;28;20220;-75
2023/05/14 04:12:14;;;;;;;4.43;4.03;;;;;;;;;;5006772;28;20595;-75
2023/05/14 04:14:40;;;;;;;4.90;4.50;;;;;;;;;;4999125;28;20214;-74
2023/05/14 04:17:06;;;;;;;4.47;4.17;;;;;;;;;;4999880;28;20239;-76
2023/05/14 04:19:39;;;;;;;5.10;4.60;;;;;;;;;;5016305;28;20227;-75
2023/05/14 04:22:07;;;;;;;4.73;4.40;;;;;;;;;;5013470;28;20302;-76
2023/05/14 04:24:32;;;;;;;4.10;3.80;;;;;;;;;;5018805;28;21151;-75
2023/05/14 04:26:58;;;;;;;4.83;4.43;;;;;;;;;;4999462;28;20724;-76
2023/05/14 04:29:26;;;;;;;5.10;4.70;;;;;;;;;;5002558;28;20226;-75
2023/05/14 04:31:54;;;;;;;4.43;4.00;;;;;;;;;;4992592;28;20226;-76
2023/05/14 04:34:22;;;;;;;4.93;4.53;;;;;;;;;;4999399;28;20307;-75
2023/05/14 04:36:50;;;;;;;4.40;4.10;;;;;;;;;;5031635;28;20666;-75
2023/05/14 04:39:18;;;;;;;4.57;4.17;;;;;;;;;;5002597;28;20212;-75
2023/05/14 04:41:51;;;;;;;4.47;4.10;;;;;;;;;;5015285;28;20239;-75
2023/05/14 04:44:19;;;;;;;4.73;4.33;;;;;;;;;;5012594;28;20216;-76
2023/05/14 04:46:44;;;;;;;4.33;4.03;;;;;;;;;;5017181;28;20227;-76
2023/05/14 04:49:10;;;;;;;4.13;3.67;;;;;;;;;;5010733;28;20224;-76
2023/05/14 04:51:38;;;;;;;4.37;4.07;;;;;;;;;;4998506;28;20223;-75
2023/05/14 04:54:06;;;;;;;4.00;3.70;;;;;;;;;;5013634;28;20223;-75
2023/05/14 04:56:31;;;;;;;4.10;3.80;;;;;;;;;;5013225;28;20216;-75
2023/05/14 04:58:57;;;;;;;3.87;3.57;;;;;;;;;;5035299;28;20741;-75
2023/05/14 05:01:24;;;;;;;4.03;3.80;;;;;;;;;;5029952;28;20232;-75
2023/05/14 05:03:52;;;;;;;4.07;3.77;;;;;;;;;;4991496;28;20307;-75
2023/05/14 05:06:18;;;;;;;4.43;4.03;;;;;;;;;;5018188;28;20235;-75
2023/05/14 05:08:43;;;;;;;4.53;3.80;;;;;;;;;;4998194;28;20216;-74
2023/05/14 05:11:13;;;;;;;4.07;3.77;;;;;;;;;;5015645;28;20928;-75
2023/05/14 05:13:38;;;;;;;4.10;3.70;;;;;;;;;;5017022;28;20220;-74
2023/05/14 05:16:06;;;;;;;3.90;3.63;;;;;;;;;;4997028;28;20310;-75
2023/05/14 05:18:32;;;;;;;3.50;3.20;;;;;;;;;;5036241;28;20368;-75
2023/05/14 05:21:00;;;;;;;3.90;3.60;;;;;;;;;;5028909;28;20220;-75
2023/05/14 05:23:32;;;;;;;4.13;3.73;;;;;;;;;;5014055;28;20226;-74
2023/05/14 05:25:57;;;;;;;3.90;3.60;;;;;;;;;;5014990;28;20274;-74
2023/05/14 05:28:26;;;;;;;3.97;3.67;;;;;;;;;;5032501;28;20793;-75
2023/05/14 05:30:54;;;;;;;4.03;3.65;;;;;;;;;;5017388;28;20226;-78
2023/05/14 05:33:19;;;;;;;4.05;3.75;;;;;;;;;;5012637;28;20220;-75
2023/05/14 05:35:48;;;;;;;3.80;3.50;;;;;;;;;;4998825;28;20208;-75
2023/05/14 05:38:17;;;;;;;3.80;3.50;;;;;;;;;;5015132;28;20220;-75
2023/05/14 05:40:45;;;;;;;3.90;3.60;;;;;;;;;;5013256;28;20254;-75
2023/05/14 05:43:16;;;;;;;3.97;3.67;;;;;;;;;;5033096;28;20223;-74
2023/05/14 05:45:44;;;;;;;3.08;2.88;;;;;;;;;;4994475;28;20215;-74
2023/05/14 05:48:10;;;;;;;3.38;3.13;;;;;;;;;;5023745;28;20211;-77
2023/05/14 05:50:38;;;;;;;3.60;3.30;;;;;;;;;;5031087;28;20207;-77
2023/05/14 05:53:05;;;;;;;3.47;3.17;;;;;;;;;;5028159;28;20236;-77
2023/05/14 05:55:33;;;;;;;3.28;3.08;;;;;;;;;;5035122;28;20776;-77
2023/05/14 05:58:01;;;;;;;3.63;3.33;;;;;;;;;;5030322;28;20709;-76
2023/05/14 06:00:26;;;;;;;3.60;3.25;;;;;;;;;;4997553;28;20254;-76
2023/05/14 06:02:52;;;;;;;3.40;3.10;;;;;;;;;;5045847;28;20220;-76
2023/05/14 06:05:18;;;;;;;3.30;3.10;;;;;;;;;;5014080;28;20271;-76
2023/05/14 06:07:46;;;;;;;3.17;2.97;;;;;;;;;;5024133;28;20285;-76
2023/05/14 06:10:11;;;;;;;3.30;3.10;;;;;;;;;;5046437;28;20219;-76
2023/05/14 06:12:39;;;;;;;3.15;2.85;;;;;;;;;;4997745;28;20580;-76
2023/05/14 06:15:05;;;;;;;3.45;3.22;;;;;;;;;;4998573;28;20228;-77
2023/05/14 06:17:33;;;;;;;3.47;3.17;;;;;;;;;;5028757;28;20219;-76
2023/05/14 06:20:10;;;;;;;3.33;3.03;;;;;;;;;;5015396;28;20228;-77
2023/05/14 06:25:57;;;;;;;3.45;3.15;;;;;;;;;;5021576;28;20231;-79
2023/05/14 06:28:22;;;;;;;3.10;2.90;;;;;;;;;;5020980;28;20343;-79
2023/05/14 06:30:53;;;;;;;3.40;3.20;;;;;;;;;;4989939;28;20220;-79
2023/05/14 06:33:22;;;;;;;3.03;2.83;;;;;;;;;;5002355;28;20273;-81
2023/05/14 06:35:47;;;;;;;3.00;2.80;;;;;;;;;;4972235;28;20221;-80
2023/05/14 06:38:15;;;;;;;2.80;2.60;;;;;;;;;;4979509;28;20221;-79
2023/05/14 06:40:40;;;;;;;2.40;2.30;;;;;;;;;;5006057;28;20231;-80
2023/05/14 06:43:08;;;;;;;2.65;2.45;;;;;;;;;;4991286;28;20243;-80
2023/05/14 06:45:34;;;;;;;2.80;2.60;;;;;;;;;;5002863;28;20231;-78
2023/05/14 06:48:00;;;;;;;2.67;2.47;;;;;;;;;;4992986;28;20223;-79
2023/05/14 06:50:25;;;;;;;2.50;2.30;;;;;;;;;;4992173;28;20577;-79
2023/05/14 06:52:51;;;;;;;4.15;2.13;;;;;;;;;;4985972;28;20228;-80
2023/05/14 06:55:16;;;;;;;2.60;2.40;;;;;;;;;;5005132;28;20751;-80
2023/05/14 06:57:43;;;;;;;2.35;2.15;;;;;;;;;;4995649;28;20223;-80
2023/05/14 07:00:09;;;;;;;2.30;2.10;;;;;;;;;;4980446;28;20220;-78
2023/05/14 07:02:56;;;;;;;2.17;2.00;;;;;;;;;;4991300;28;20232;-79
2023/05/14 07:05:23;;;;;;;2.05;1.95;;;;;;;;;;4977420;28;20220;-80
2023/05/14 07:07:52;;;;;;;2.15;1.95;;;;;;;;;;4995074;28;20857;-79
2023/05/14 07:10:22;;;;;;;2.15;2.05;;;;;;;;;;4980898;28;20239;-81
2023/05/14 07:12:48;;;;;;;2.03;1.92;;;;;;;;;;5020982;28;20234;-80
2023/05/14 07:15:16;;;;;;;2.67;2.08;;;;;;;;;;5001618;28;20216;-80
2023/05/14 07:17:44;;;;;;;2.00;1.90;;;;;;;;;;5020612;28;20220;-78
2023/05/14 07:20:12;;;;;;;2.10;2.00;;;;;;;;;;5005692;28;20227;-79
2023/05/14 07:22:42;;;;;;;1.90;1.80;;;;;;;;;;5018462;28;20256;-80
2023/05/14 07:25:09;;;;;;;3.03;2.10;;;;;;;;;;5008057;28;20216;-79
2023/05/14 07:27:34;;;;;;;2.13;1.92;;;;;;;;;;4978253;28;20540;-80
2023/05/14 07:30:00;;;;;;;2.08;1.88;;;;;;;;;;4992716;28;20220;-80
2023/05/14 07:32:26;;;;;;;2.20;2.00;;;;;;;;;;4983977;28;20217;-79
2023/05/14 07:34:51;;;;;;;2.22;2.05;;;;;;;;;;5012090;28;20224;-79
2023/05/14 07:37:17;;;;;;;2.25;2.05;;;;;;;;;;5015515;28;20220;-79
2023/05/14 07:39:42;;;;;;;2.03;1.90;;;;;;;;;;5008957;28;20277;-78
2023/05/14 07:42:10;;;;;;;2.17;2.08;;;;;;;;;;5017913;28;20259;-78
2023/05/14 07:44:36;;;;;;;1.95;1.85;;;;;;;;;;4992219;28;20659;-78
2023/05/14 07:47:03;;;;;;;2.10;2.00;;;;;;;;;;4994907;28;20208;-80
2023/05/14 07:49:30;;;;;;;3.50;2.10;;;;;;;;;;4961674;28;20220;-79
2023/05/14 07:51:56;;;;;;;2.15;2.05;;;;;;;;;;5005851;28;20227;-80
2023/05/14 07:54:21;;;;;;;2.15;2.05;;;;;;;;;;4991771;28;20216;-80
2023/05/14 07:56:47;;;;;;;2.13;2.00;;;;;;;;;;5024172;28;20914;-79
2023/05/14 07:59:14;;;;;;;3.13;2.13;;;;;;;;;;4976468;28;20228;-79
2023/05/14 08:01:43;;;;;;;2.38;2.17;;;;;;;;;;4978345;28;20274;-78
2023/05/14 08:04:10;;;;;;;2.30;2.10;;;;;;;;;;4991048;28;20224;-79
2023/05/14 08:06:36;;;;;;;2.30;2.10;;;;;;;;;;4993594;28;20587;-80
2023/05/14 08:09:04;;;;;;;2.42;2.22;;;;;;;;;;5009280;28;20231;-80
2023/05/14 08:11:31;;;;;;;1.85;1.67;;;;;;;;;;4985876;28;20375;-78
2023/05/14 08:14:01;;;;;;;2.25;2.10;;;;;;;;;;5005687;28;20689;-78
2023/05/14 08:16:29;;;;;;;2.00;1.90;;;;;;;;;;4993757;28;20648;-80
2023/05/14 08:18:57;;;;;;;2.97;2.08;;;;;;;;;;4990498;28;20224;-81
2023/05/14 08:21:23;;;;;;;2.20;2.05;;;;;;;;;;4993930;28;20236;-79
2023/05/14 08:23:50;;;;;;;2.15;2.00;;;;;;;;;;4978403;28;20591;-80
2023/05/14 08:26:16;;;;;;;2.15;1.95;;;;;;;;;;4979635;28;20219;-79
2023/05/14 08:28:41;;;;;;;1.95;1.85;;;;;;;;;;4989989;28;20220;-80
2023/05/14 08:31:22;;;;;;;2.05;1.90;;;;;;;;;;5005818;28;20236;-82
2023/05/14 08:33:47;;;;;;;1.95;1.83;;;;;;;;;;5004754;28;20224;-78
2023/05/14 08:36:13;;;;;;;2.10;2.00;;;;;;;;;;5020403;28;20234;-80
2023/05/14 08:38:39;;;;;;;2.40;2.20;;;;;;;;;;4991474;28;20240;-81
2023/05/14 08:41:04;;;;;;;2.45;2.25;;;;;;;;;;4989457;28;20228;-78
2023/05/14 08:43:48;;;;;;;2.58;2.17;;;;;;;;;;4975016;28;20312;-81
2023/05/14 08:46:14;;;;;;;2.20;2.10;;;;;;;;;;5008853;28;20231;-80
2023/05/14 08:48:40;;;;;;;2.88;2.30;;;;;;;;;;4956637;28;20377;-79
2023/05/14 08:51:06;;;;;;;2.45;2.25;;;;;;;;;;4986708;28;20311;-80
2023/05/14 08:53:32;;;;;;;2.33;2.20;;;;;;;;;;4986564;28;20280;-79
2023/05/14 08:56:02;;;;;;;2.35;2.15;;;;;;;;;;5007512;28;20228;-77
2023/05/14 08:58:28;;;;;;;2.30;2.20;;;;;;;;;;4976041;28;20220;-77
2023/05/14 09:00:55;;;;;;;2.30;2.10;;;;;;;;;;4993088;28;20853;-79
2023/05/14 09:03:20;;;;;;;2.17;1.98;;;;;;;;;;4959239;28;20224;-79
2023/05/14 09:05:50;;;;;;;2.50;2.28;;;;;;;;;;4978550;28;20303;-79
2023/05/14 09:08:16;;;;;;;2.45;2.20;;;;;;;;;;4989509;28;20598;-79
2023/05/14 09:10:44;;;;;;;2.20;2.10;;;;;;;;;;5004856;28;20280;-79
2023/05/14 09:13:10;;;;;;;2.25;2.05;;;;;;;;;;4960072;28;20232;-77
2023/05/14 09:15:36;;;;;;;2.40;2.20;;;;;;;;;;4972847;28;20215;-79
2023/05/14 09:18:04;;;;;;;2.63;2.42;;;;;;;;;;4955805;28;21209;-79
2023/05/14 09:20:32;;;;;;;2.53;2.33;;;;;;;;;;4989050;28;20258;-77
2023/05/14 09:22:58;;;;;;;2.42;2.20;;;;;;;;;;4985943;28;20224;-79
2023/05/14 09:25:30;;;;;;;2.28;2.15;;;;;;;;;;4984369;28;20622;-79
2023/05/14 09:28:01;;;;;;;2.20;2.10;;;;;;;;;;4983708;28;20242;-78
2023/05/14 09:30:29;;;;;;;2.70;2.30;;;;;;;;;;5005839;28;20692;-78
2023/05/14 09:32:57;;;;;;;2.38;2.17;;;;;;;;;;4988879;28;20262;-77
2023/05/14 09:35:23;;;;;;;2.35;2.15;;;;;;;;;;5012101;28;20249;-79
2023/05/14 09:37:50;;;;;;;2.53;2.33;;;;;;;;;;5003879;28;20288;-77
2023/05/14 09:40:16;;;;;;;2.42;1.95;;;;;;;;;;4975952;28;21575;-81
2023/05/14 09:42:42;;;;;;;2.50;2.20;;;;;;;;;;4961478;28;21199;-79
2023/05/14 09:45:08;;;;;;;2.50;2.30;;;;;;;;;;4993202;28;20233;-81
2023/05/14 09:47:36;;;;;;;2.45;2.25;;;;;;;;;;4994310;28;20729;-79
2023/05/14 09:50:03;;;;;;;2.42;2.22;;;;;;;;;;4997990;28;20250;-79
2023/05/14 09:52:28;;;;;;;2.50;2.30;;;;;;;;;;5015091;28;21409;-80
2023/05/14 09:54:54;;;;;;;2.50;2.15;;;;;;;;;;5017930;28;20282;-78
2023/05/14 09:57:22;;;;;;;2.50;2.30;;;;;;;;;;5004901;28;20285;-79
2023/05/14 09:59:48;;;;;;;4.32;2.10;;;;;;;;;;4972316;28;20212;-78
2023/05/14 10:02:21;;;;;;;2.22;2.13;;;;;;;;;;5001007;28;20232;-79
2023/05/14 10:04:48;;;;;;;2.17;1.98;;;;;;;;;;4987593;28;20251;-82
2023/05/14 10:07:17;;;;;;;2.15;2.05;;;;;;;;;;4984085;28;20307;-78
2023/05/14 10:09:43;;;;;;;2.83;2.10;;;;;;;;;;4973021;28;20307;-77
2023/05/14 10:12:09;;;;;;;3.38;2.20;;;;;;;;;;4955828;28;20220;-79
2023/05/14 10:14:37;;;;;;;2.78;2.33;;;;;;;;;;4968841;28;20216;-77
2023/05/14 10:17:03;;;;;;;2.30;2.20;;;;;;;;;;4999584;28;20224;-78
2023/05/14 10:19:30;;;;;;;2.40;2.20;;;;;;;;;;4986486;28;21272;-79
2023/05/14 10:21:59;;;;;;;2.22;2.08;;;;;;;;;;4990028;28;20228;-79
2023/05/14 10:24:25;;;;;;;2.88;2.13;;;;;;;;;;5006084;28;20971;-79
2023/05/14 10:26:50;;;;;;;2.60;2.40;;;;;;;;;;4972690;28;20220;-78
2023/05/14 10:29:19;;;;;;;2.22;2.08;;;;;;;;;;4993181;28;20232;-78
2023/05/14 10:31:55;;;;;;;2.85;2.40;;;;;;;;;;4974909;28;20316;-77
2023/05/14 10:34:47;;;;;;;2.15;1.95;;;;;;;;;;4993679;28;20235;-79
2023/05/14 10:37:19;;;;;;;2.33;2.13;;;;;;;;;;5004639;28;20231;-77
2023/05/14 10:39:58;;;;;;;2.63;2.42;;;;;;;;;;5012791;28;20263;-78
2023/05/14 10:42:25;;;;;;;3.03;2.13;;;;;;;;;;5026395;28;20252;-79
2023/05/14 10:44:57;;;;;;;2.25;2.05;;;;;;;;;;5010771;28;20501;-79
2023/05/14 10:47:26;;;;;;;2.60;2.40;;;;;;;;;;4993957;28;20259;-77
2023/05/14 10:49:58;;;;;;;3.72;2.53;;;;;;;;;;5009883;28;20224;-77
2023/05/14 10:52:24;;;;;;;2.40;2.20;;;;;;;;;;4967215;28;20243;-77
2023/05/14 10:55:14;;;;;;;2.40;2.20;;;;;;;;;;4999290;28;20281;-75
2023/05/14 10:57:42;;;;;;;2.58;2.10;;;;;;;;;;5009642;28;20250;-76
2023/05/14 11:00:13;;;;;;;2.40;2.30;;;;;;;;;;4986787;28;20224;-77
2023/05/14 11:02:42;;;;;;;2.50;2.30;;;;;;;;;;5007210;28;20239;-77
2023/05/14 11:05:09;;;;;;;2.40;2.17;;;;;;;;;;5014150;28;20226;-78
2023/05/14 11:07:47;;;;;;;2.45;2.25;;;;;;;;;;5011837;28;20228;-79
2023/05/14 11:10:17;;;;;;;2.35;2.22;;;;;;;;;;4981343;28;20294;-78
2023/05/14 11:12:44;;;;;;;2.50;2.30;;;;;;;;;;4985257;28;20267;-77
2023/05/14 11:15:19;;;;;;;2.83;2.40;;;;;;;;;;5015043;28;20213;-77
2023/05/14 11:17:45;;;;;;;2.40;2.20;;;;;;;;;;4984453;28;20318;-80
2023/05/14 11:20:11;;;;;;;2.53;2.38;;;;;;;;;;4992658;28;20278;-78
2023/05/14 11:22:47;;;;;;;2.75;2.47;;;;;;;;;;5012717;28;20274;-78
2023/05/14 11:25:13;;;;;;;2.67;2.47;;;;;;;;;;5000971;28;20234;-79
2023/05/14 11:27:39;;;;;;;2.63;2.42;;;;;;;;;;4994355;28;20231;-79
2023/05/14 11:30:17;;;;;;;2.40;2.20;;;;;;;;;;5011076;28;20232;-81
2023/05/14 11:32:46;;;;;;;2.53;2.33;;;;;;;;;;4977710;28;20258;-78
2023/05/14 11:35:14;;;;;;;2.40;2.20;;;;;;;;;;4978297;28;20238;-80
2023/05/14 11:37:41;;;;;;;2.30;2.10;;;;;;;;;;5013573;28;20311;-77
2023/05/14 11:40:11;;;;;;;2.47;2.33;;;;;;;;;;4983667;28;20284;-80
2023/05/14 11:42:36;;;;;;;2.72;2.53;;;;;;;;;;5009563;28;21007;-79
2023/05/14 11:45:05;;;;;;;4.50;2.70;;;;;;;;;;5004974;28;20224;-79
2023/05/14 11:47:30;;;;;;;2.47;2.28;;;;;;;;;;5026625;28;20892;-80
2023/05/14 11:49:56;;;;;;;2.47;2.28;;;;;;;;;;4995273;28;20224;-80
2023/05/14 11:52:24;;;;;;;2.60;2.40;;;;;;;;;;4998139;28;20220;-79
2023/05/14 11:54:49;;;;;;;2.60;2.40;;;;;;;;;;4980674;28;20227;-78
2023/05/14 11:57:17;;;;;;;2.47;2.28;;;;;;;;;;5009768;28;20224;-78
2023/05/14 11:59:43;;;;;;;2.15;2.03;;;;;;;;;;4996586;28;20232;-77
2023/05/14 12:02:15;;;;;;;2.25;2.15;;;;;;;;;;4976521;28;20227;-78
2023/05/14 12:04:43;;;;;;;3.55;3.35;;;;;;;;;;4992088;28;20231;-77
2023/05/14 12:07:14;;;;;;;2.90;2.70;;;;;;;;;;4976708;28;20653;-77
2023/05/14 12:09:48;;;;;;;2.53;2.35;;;;;;;;;;4991434;28;20219;-79
2023/05/14 12:12:13;;;;;;;2.50;2.30;;;;;;;;;;4995586;28;20235;-80
2023/05/14 12:14:41;;;;;;;2.25;2.05;;;;;;;;;;5007674;28;20220;-78
2023/05/14 12:17:19;;;;;;;2.55;2.05;;;;;;;;;;5013819;28;20227;-78
2023/05/14 12:19:46;;;;;;;2.22;2.10;;;;;;;;;;5025923;28;20309;-78
2023/05/14 12:22:16;;;;;;;2.25;2.05;;;;;;;;;;4990832;28;20228;-76
2023/05/14 12:24:42;;;;;;;2.30;2.20;;;;;;;;;;4978140;28;21161;-77
2023/05/14 12:27:13;;;;;;;3.05;2.50;;;;;;;;;;4989607;28;20261;-79
2023/05/14 12:29:39;;;;;;;2.55;2.13;;;;;;;;;;4976146;28;20239;-78
2023/05/14 12:32:08;;;;;;;2.30;2.05;;;;;;;;;;5013535;28;21552;-79
2023/05/14 12:34:37;;;;;;;2.25;2.10;;;;;;;;;;4995316;28;20961;-78
2023/05/14 12:37:12;;;;;;;2.35;2.15;;;;;;;;;;4962476;28;20225;-75
2023/05/14 12:39:37;;;;;;;2.50;2.30;;;;;;;;;;4997960;28;20219;-78
2023/05/14 12:42:03;;;;;;;2.40;2.20;;;;;;;;;;5004052;28;20239;-79
2023/05/14 12:44:31;;;;;;;2.22;2.13;;;;;;;;;;4984607;28;20756;-81
2023/05/14 12:46:56;;;;;;;2.67;2.35;;;;;;;;;;5020331;28;20217;-80
2023/05/14 12:49:22;;;;;;;2.55;2.42;;;;;;;;;;4993121;28;20329;-79
2023/05/14 12:51:47;;;;;;;2.35;2.15;;;;;;;;;;5004098;28;20240;-79
2023/05/14 12:54:14;;;;;;;2.40;2.20;;;;;;;;;;4986311;28;20235;-75
2023/05/14 12:56:42;;;;;;;2.65;2.30;;;;;;;;;;4985938;28;20219;-78
2023/05/14 12:59:08;;;;;;;3.83;3.53;;;;;;;;;;4984999;28;20212;-79
2023/05/14 13:01:33;;;;;;;9.48;8.68;;;;;;;;;;4987621;28;20628;-80
2023/05/14 13:03:59;;;;;;;7.50;6.80;;;;;;;;;;4997014;28;20224;-79
2023/05/14 13:06:27;;;;;;;2.80;2.60;;;;;;;;;;4972353;28;20220;-81
2023/05/14 13:08:53;;;;;;;2.60;2.40;;;;;;;;;;5001169;28;20220;-77
2023/05/14 13:11:18;;;;;;;2.30;2.10;;;;;;;;;;4969229;28;20585;-79
2023/05/14 13:13:44;;;;;;;2.67;2.47;;;;;;;;;;4986578;28;20232;-77
2023/05/14 13:16:09;;;;;;;2.40;2.20;;;;;;;;;;5000639;28;20228;-81
2023/05/14 13:18:35;;;;;;;2.33;2.17;;;;;;;;;;4983261;28;20754;-80
2023/05/14 13:21:03;;;;;;;2.20;2.10;;;;;;;;;;4985246;28;20224;-79
2023/05/14 13:23:28;;;;;;;2.60;2.40;;;;;;;;;;4995789;28;20229;-79
2023/05/14 13:25:54;;;;;;;2.30;2.20;;;;;;;;;;4984399;28;20278;-77
2023/05/14 13:28:19;;;;;;;2.53;2.33;;;;;;;;;;5021608;28;20657;-81
2023/05/14 13:31:07;;;;;;;2.63;2.42;;;;;;;;;;4992919;28;20209;-83
2023/05/14 13:33:39;;;;;;;2.80;2.60;;;;;;;;;;4983171;28;20292;-84
2023/05/14 13:36:07;;;;;;;2.40;2.20;;;;;;;;;;4980231;28;20216;-84
2023/05/14 13:38:33;;;;;;;2.35;2.15;;;;;;;;;;4986990;28;21371;-83
2023/05/14 13:41:01;;;;;;;2.50;2.30;;;;;;;;;;5012928;28;20243;-85
2023/05/14 13:43:28;;;;;;;2.33;2.17;;;;;;;;;;4982201;28;20212;-85
2023/05/14 13:45:56;;;;;;;2.50;2.30;;;;;;;;;;5003803;28;20283;-83
2023/05/14 13:48:24;;;;;;;1.83;1.73;;;;;;;;;;4981797;28;20224;-82
2023/05/14 13:50:52;;;;;;;2.25;2.08;;;;;;;;;;4988362;28;20253;-86
2023/05/14 13:53:18;;;;;;;2.20;2.00;;;;;;;;;;5012713;28;20219;-85
2023/05/14 13:55:44;;;;;;;2.25;2.13;;;;;;;;;;4989107;28;20227;-83
2023/05/14 13:58:09;;;;;;;2.60;2.40;;;;;;;;;;4984934;28;20226;-84
2023/05/14 14:00:35;;;;;;;2.35;2.15;;;;;;;;;;4981454;28;20764;-83
2023/05/14 14:03:00;;;;;;;2.20;2.00;;;;;;;;;;4986065;23;20237;-75
2023/05/14 14:05:27;;;;;;;4.43;2.30;;;;;;;;;;4996646;28;20239;-75
2023/05/14 14:07:56;;;;;;;2.60;2.40;;;;;;;;;;5010184;28;20232;-77
2023/05/14 14:10:24;;;;;;;3.10;2.33;;;;;;;;;;5023734;28;20227;-76
2023/05/14 14:12:49;;;;;;;2.35;2.13;;;;;;;;;;5013843;28;20216;-77
2023/05/14 14:15:19;;;;;;;3.75;2.45;;;;;;;;;;5016567;28;20231;-77
2023/05/14 14:17:45;;;;;;;6.60;2.38;;;;;;;;;;5018583;28;20221;-76
2023/05/14 14:20:11;;;;;;;2.55;2.30;;;;;;;;;;5012021;28;20212;-77
2023/05/14 14:22:38;;;;;;;2.75;2.35;;;;;;;;;;5015155;28;20832;-77
2023/05/14 14:25:06;;;;;;;2.50;2.30;;;;;;;;;;4982383;28;20625;-76
2023/05/14 14:27:37;;;;;;;2.42;2.22;;;;;;;;;;5016359;28;20714;-77
2023/05/14 14:30:14;;;;;;;2.58;2.38;;;;;;;;;;4999481;28;20224;-77
2023/05/14 14:32:43;;;;;;;2.95;2.10;;;;;;;;;;5002801;28;20231;-74
2023/05/14 14:35:09;;;;;;;2.67;2.28;;;;;;;;;;5018133;28;20223;-77
2023/05/14 14:37:37;;;;;;;2.65;2.40;;;;;;;;;;5017938;28;20232;-77
2023/05/14 14:40:05;;;;;;;3.38;2.53;;;;;;;;;;5003089;28;20213;-77
2023/05/14 14:42:35;;;;;;;2.80;2.50;;;;;;;;;;5003552;28;20235;-77
2023/05/14 14:45:06;;;;;;;2.33;2.20;;;;;;;;;;4992884;28;20248;-78
2023/05/14 14:47:35;;;;;;;3.47;2.47;;;;;;;;;;4996477;28;20236;-78
2023/05/14 14:50:00;;;;;;;2.67;2.17;;;;;;;;;;4996956;28;20233;-77